不知道这种帖子应该发在哪儿,所以就搁这儿了。。。不知道大家发现这个事没有,如果我是最后一个知道这件事的,我就找个东南枝挂上去。。。大家都知道,CWB的云图,在北京时间的每日2点半、8点半、14点半、20点半,是没有图的。这是因为MTSAT-2卫星在一些时候,只拍南半球,不拍北半球... 全文

2015-05-08 23:03 来自版块 - 休闲娱乐

多图蓝色预警信号,正在生效:受一个啰里巴嗦的PO主影响,一个多图多文字的帖子已经生成,正在影响您的电脑、手机等终端,预计您将消耗大于2MB的流量,请注意充值。=================================================通过天气雷达的回... 全文

2014-06-21 10:17 来自版块 - 论坛教程

实在是不能忍。。。我是真心不想再在追击帖里开骂了。。。可是这样的帖子....说是吹水吧,它又有点“统计学”上的意味说是正经帖,它又水得不行,还加粗加大生怕别人看不到....说是朗诵文......这个靠谱...天使已然堕落,而她还在天堂飞翔,其他平民情何以堪。。。在此敝人恳... 全文

2013-10-04 04:09 来自版块 - 站务交流

http://bbs.typhoon.gov.cn/read.php?tid=52272;page=20194楼,莎莉:东风波出身的TC对于水汽要求没那么高。其实只要环境不是很干燥,就算没有明显的季风支持,TC都能够顺利发展,高SST的蒸发完全可以维持TC的对流。 -------... 全文

2012-08-18 02:30 来自版块 - 我要提问

全天云量监测,5min拍一张,快门速度因天光亮度变化而自行调整。http://www.xinglong-naoc.org/cloudy/实时气象数据监测,有气温、湿度、风速,每分钟自动更新。http://www.xinglong-naoc.org/weatherchart/ind... 全文

2011-04-30 15:56 来自版块 - 天气档案

还是换地址了我没找到?求新地址或其他地方的,这些层面的气压图,谢谢~

2011-03-20 19:47 来自版块 - 我要提问

转自他微博宋英杰:电梯里只有我一个人。电梯门开,进来一家三口。小男孩问爸妈:“咱们的房间号是多少?” 妈妈连珠炮似的教育孩子:“不能当着外人的面暴露隐私。现在社会上有几个好人呀?到处都有拐卖孩子的坏人。要是让坏人听见咱们住在哪个房间,那多危险啊!” 我负罪般地侧过头去,不敢看孩子... 全文

2011-03-20 16:49 来自版块 - 休闲娱乐

发信人: tRNA (两个月后~), 信区: Geography标 题: Re: NHK: 日本各地有数据的实测海啸高度 (转载)发信站: 水木社区 (Sat Mar 12 01:05:58 2011), 站内排版【 在 parabola (抛物线) 的大作中提到: 】【 以下... 全文

2011-03-12 01:20 来自版块 - 天气档案

1月METAR ZBAA 311600Z 35005MPS CAVOK M09/M21 Q1033 NOSIG METAR ZBAA 311630Z 35004MPS CAVOK M09/M21 Q1033 NOSIG METAR ZBAA 311700Z 34003MPS CA... 全文

2011-03-01 10:28 来自版块 - 天气档案

11月(缺上旬)METAR ZBAA 121900Z 35007MPS CAVOK 07/M09 Q1021 NOSIGMETAR ZBAA 131000Z 02003MPS CAVOK 05/M15 Q1031 NOSIGMETAR ZBAA 141600Z 33006MPS ... 全文

2011-03-01 10:26 来自版块 - 天气档案

有TC等现象的时候,对了解广州的实况应该有不小的帮助吧。 地址为:http://7timer.y234.cn/eesael/wordpress/?page_id=276一号摄像头指向正北,监控范围包括大学城外环西路、珠江、新洲以及黄埔。 二号摄像头指向西北,监控范围包括实验室观测... 全文

2011-02-24 02:02 来自版块 - 天气档案

以及成雾机理是什么?谢谢

2010-10-21 01:36 来自版块 - 我要提问

17WJTWC:30kts [琛ㄦ牸] 简述:就在鲇鱼与16W活跃之时,NRL给予这个远洋的热带系统临时编号:98W。98W自编号开始,就有较好的螺旋性,JMA早早地就发布GW,使风迷们心存希望。只可惜98W一直受其左侧的一个高空冷涡影响,卷入干空气。但98W依旧发展,在22... 全文

2010-10-20 06:59 来自版块 - 风暴档案

这不是没有道理的!以前的台风(TC),结构不好,不怎么去理会,该吃吃该喝喝,日子过得很自在。现在关注鲇鱼,稍有点动态就挂在心上,这条鱼流入流出都很好,CISK运转良好,小日子过得有滋有味的;我呢,高层流入和低层双通道流出都很顺畅,尤其向前急流通道流出顺畅,系统内部能量提供机制也很... 全文

2010-10-19 02:07 来自版块 - 休闲娱乐

首先祝大家中秋快乐!! 螺旋性好,结构较好,对流一般

2010-09-22 03:57 来自版块 - 风暴档案


返回顶部